Time;durP1;ratioP1;P1;durP2;ratioP2;P2;SDS_P1;SDS_P2;PMS_P1;PMS_P2;Temp;Humidity;BMP_temperature;BMP_pressure;BME280_temperature;BME280_humidity;BME280_pressure;Samples;Min_cycle;Max_cycle;Signal;HPM_P1;HPM_P2
2023/12/01 00:01:02;;;;;;;44.20;16.37;;;;;;;0.12;100.00;100222.75;6220635;23;20012;-89
2023/12/01 00:03:30;;;;;;;41.80;16.55;;;;;;;0.12;100.00;100227.25;6247734;23;20007;-89
2023/12/01 00:05:55;;;;;;;38.13;15.90;;;;;;;0.11;100.00;100229.06;6220814;23;20101;-89
2023/12/01 00:08:21;;;;;;;40.17;15.60;;;;;;;0.12;100.00;100232.59;6220742;23;20740;-89
2023/12/01 00:10:49;;;;;;;41.13;16.30;;;;;;;0.14;100.00;100239.41;6220706;23;20035;-89
2023/12/01 00:13:14;;;;;;;38.28;15.50;;;;;;;0.14;100.00;100238.59;6220723;23;20330;-89
2023/12/01 00:15:39;;;;;;;42.53;17.27;;;;;;;0.15;100.00;100238.41;6220847;23;20032;-89
2023/12/01 00:18:07;;;;;;;42.07;16.33;;;;;;;0.16;100.00;100245.44;6221691;23;20019;-89
2023/12/01 00:20:33;;;;;;;44.33;17.02;;;;;;;0.16;100.00;100242.75;6221249;23;20018;-89
2023/12/01 00:22:58;;;;;;;44.03;16.70;;;;;;;0.15;100.00;100235.75;6220669;23;20007;-89
2023/12/01 00:25:24;;;;;;;42.77;16.13;;;;;;;0.16;100.00;100241.91;6220825;23;20004;-89
2023/12/01 00:27:49;;;;;;;48.63;17.33;;;;;;;0.16;100.00;100247.25;6195464;23;20004;-89
2023/12/01 00:30:14;;;;;;;39.00;15.15;;;;;;;0.11;100.00;100250.41;6195389;23;20258;-89
2023/12/01 00:32:41;;;;;;;37.13;15.80;;;;;;;0.11;100.00;100249.59;6246984;23;20098;-89
2023/12/01 00:35:09;;;;;;;42.17;16.13;;;;;;;0.10;100.00;100254.06;6220484;23;20019;-89
2023/12/01 00:37:37;;;;;;;46.70;16.92;;;;;;;0.07;100.00;100249.06;6220753;23;20005;-88
2023/12/01 00:40:03;;;;;;;43.37;15.47;;;;;;;0.11;100.00;100252.25;6220175;23;20026;-89
2023/12/01 00:42:29;;;;;;;41.20;16.30;;;;;;;0.13;100.00;100250.25;6221672;23;20008;-88
2023/12/01 00:44:56;;;;;;;40.90;15.10;;;;;;;0.12;100.00;100253.94;6171085;23;20008;-88
2023/12/01 00:47:22;;;;;;;44.83;16.58;;;;;;;0.09;100.00;100257.75;6195754;23;20012;-89
2023/12/01 00:49:47;;;;;;;38.50;14.67;;;;;;;0.08;100.00;100257.91;6220223;23;20007;-89
2023/12/01 00:52:13;;;;;;;41.47;15.65;;;;;;;0.05;100.00;100260.91;6220680;23;20094;-88
2023/12/01 00:54:41;;;;;;;42.03;14.90;;;;;;;-0.01;100.00;100262.38;6247789;23;20008;-89
2023/12/01 00:57:06;;;;;;;40.08;15.38;;;;;;;-0.02;100.00;100274.03;6220333;23;20434;-89
2023/12/01 00:59:32;;;;;;;41.87;16.30;;;;;;;-0.08;100.00;100266.69;6194616;23;20012;-89
2023/12/01 01:01:57;;;;;;;44.97;15.07;;;;;;;-0.04;100.00;100270.69;6219802;23;20371;-89
2023/12/01 01:04:23;;;;;;;40.37;14.57;;;;;;;-0.06;100.00;100267.34;6220425;23;20015;-89
2023/12/01 01:06:49;;;;;;;40.28;15.50;;;;;;;-0.06;100.00;100270.88;6194881;23;20334;-88
2023/12/01 01:09:15;;;;;;;39.97;14.77;;;;;;;-0.06;100.00;100267.34;6220520;23;20077;-89
2023/12/01 01:11:40;;;;;;;40.70;14.25;;;;;;;-0.03;100.00;100275.03;6220417;23;20724;-89
2023/12/01 01:14:06;;;;;;;45.13;16.03;;;;;;;-0.01;100.00;100289.88;6220457;23;20039;-89
2023/12/01 01:16:31;;;;;;;43.90;15.60;;;;;;;-0.01;100.00;100283.72;6220449;23;20358;-90
2023/12/01 01:18:57;;;;;;;40.70;13.80;;;;;;;-0.03;100.00;100281.22;6220886;23;20031;-89
2023/12/01 01:21:23;;;;;;;41.13;15.20;;;;;;;-0.04;100.00;100276.03;6220352;23;20000;-89
2023/12/01 01:23:48;;;;;;;41.63;14.93;;;;;;;-0.03;100.00;100288.34;6220047;23;20099;-89
2023/12/01 01:26:14;;;;;;;40.53;14.52;;;;;;;-0.03;100.00;100288.34;6246904;23;20310;-89
2023/12/01 01:28:42;;;;;;;46.10;15.67;;;;;;;-0.04;100.00;100294.72;6246937;23;20000;-89
2023/12/01 01:31:08;;;;;;;43.10;14.85;;;;;;;-0.03;100.00;100291.03;6196722;23;20012;-90
2023/12/01 01:33:34;;;;;;;44.37;15.40;;;;;;;-0.05;100.00;100291.19;6219955;23;20434;-89
2023/12/01 01:36:00;;;;;;;44.85;15.85;;;;;;;-0.07;100.00;100285.19;6219931;23;20458;-89
2023/12/01 01:38:25;;;;;;;43.53;14.73;;;;;;;-0.05;100.00;100293.03;6219990;23;20039;-89
2023/12/01 01:40:51;;;;;;;45.27;15.33;;;;;;;-0.05;100.00;100291.19;6246288;23;20008;-89
2023/12/01 01:43:23;;;;;;;45.22;15.45;;;;;;;-0.05;100.00;100293.03;6218783;23;20334;-89
2023/12/01 01:45:57;;;;;;;46.00;15.77;;;;;;;-0.04;100.00;100287.53;6219936;23;20414;-89
2023/12/01 01:48:23;;;;;;;42.83;15.68;;;;;;;-0.07;100.00;100287.03;6219294;23;20254;-89
2023/12/01 01:50:48;;;;;;;44.28;15.52;;;;;;;-0.07;100.00;100293.19;6219302;23;20381;-89
2023/12/01 01:53:17;;;;;;;43.60;15.47;;;;;;;-0.05;100.00;100296.53;6218743;23;20012;-89
2023/12/01 01:55:42;;;;;;;45.35;15.23;;;;;;;-0.04;100.00;100308.88;6244598;23;20012;-89
2023/12/01 01:58:08;;;;;;;51.40;16.43;;;;;;;-0.03;100.00;100307.03;6218636;23;20158;-89
2023/12/01 02:00:36;;;;;;;46.67;15.82;;;;;;;-0.01;100.00;100307.72;6218218;23;20011;-89
2023/12/01 02:03:02;;;;;;;42.53;15.05;;;;;;;-0.01;100.00;100305.88;6218530;23;20426;-89
2023/12/01 02:05:28;;;;;;;43.67;15.70;;;;;;;-0.01;100.00;100305.06;6219127;23;20007;-89
2023/12/01 02:07:53;;;;;;;51.95;15.98;;;;;;;-0.04;100.00;100311.53;6169484;23;20459;-88
2023/12/01 02:10:19;;;;;;;50.10;16.27;;;;;;;-0.02;100.00;100322.03;6193691;23;20050;-89
2023/12/01 02:12:45;;;;;;;56.27;16.47;;;;;;;-0.05;100.00;100317.84;6219145;23;20015;-89
2023/12/01 02:15:10;;;;;;;51.83;15.20;;;;;;;-0.06;100.00;100326.00;6219320;23;20015;-88
2023/12/01 02:17:37;;;;;;;44.20;15.10;;;;;;;-0.09;100.00;100319.19;6218285;23;20013;-88
2023/12/01 02:20:05;;;;;;;49.80;15.55;;;;;;;-0.09;100.00;100321.00;6193606;23;20573;-88
2023/12/01 02:22:31;;;;;;;47.20;15.45;;;;;;;-0.07;100.00;100325.19;6243697;23;20039;-89
2023/12/01 02:24:57;;;;;;;47.85;15.00;;;;;;;-0.12;100.00;100319.47;6193103;23;20039;-89
2023/12/01 02:27:22;;;;;;;43.97;16.00;;;;;;;-0.12;100.00;100324.00;6193591;23;20012;-89
2023/12/01 02:29:48;;;;;;;44.37;15.07;;;;;;;-0.13;100.00;100319.63;6219057;23;20011;-89
2023/12/01 02:32:13;;;;;;;43.17;14.65;;;;;;;-0.14;100.00;100328.66;6219384;23;20030;-89
2023/12/01 02:34:38;;;;;;;48.40;15.73;;;;;;;-0.18;100.00;100328.13;6220789;23;20034;-90
2023/12/01 02:37:04;;;;;;;43.63;14.80;;;;;;;-0.21;100.00;100328.44;6194624;23;20015;-89
2023/12/01 02:39:30;;;;;;;48.80;15.35;;;;;;;-0.27;100.00;100323.75;6169569;23;1166327;-89
2023/12/01 02:41:56;;;;;;;42.60;14.67;;;;;;;-0.30;100.00;100319.56;6248932;23;20016;-89
2023/12/01 02:44:21;;;;;;;42.45;14.93;;;;;;;-0.30;100.00;100322.22;6222034;23;20004;-89
2023/12/01 02:46:47;;;;;;;45.17;15.80;;;;;;;-0.30;100.00;100321.41;6221946;23;20011;-89
2023/12/01 02:49:12;;;;;;;47.93;15.10;;;;;;;-0.31;100.00;100325.03;6221660;23;20008;-90
2023/12/01 02:51:38;;;;;;;46.50;15.20;;;;;;;-0.32;100.00;100324.22;6195958;23;20004;-90
2023/12/01 02:54:04;;;;;;;50.20;16.00;;;;;;;-0.36;100.00;100325.53;6196059;23;20038;-89
2023/12/01 02:56:29;;;;;;;46.33;14.90;;;;;;;-0.38;100.00;100319.53;6248377;23;20035;-89
2023/12/01 02:58:55;;;;;;;45.97;15.90;;;;;;;-0.34;100.00;100323.53;6197394;23;20115;-89
2023/12/01 03:01:20;;;;;;;49.37;16.57;;;;;;;-0.36;100.00;100314.84;6196042;23;20012;-89
2023/12/01 03:03:46;;;;;;;46.77;16.10;;;;;;;-0.36;100.00;100322.84;6222196;23;20012;-89
2023/12/01 03:06:11;;;;;;;49.17;16.57;;;;;;;-0.36;100.00;100320.19;6221562;23;20370;-89
2023/12/01 03:08:37;;;;;;;49.63;15.35;;;;;;;-0.34;100.00;100326.19;6196016;23;20016;-89
2023/12/01 03:11:06;;;;;;;50.60;15.95;;;;;;;-0.36;100.00;100322.84;6221785;23;20011;-89
2023/12/01 03:13:31;;;;;;;50.13;16.67;;;;;;;-0.35;100.00;100332.53;6197071;23;20008;-89
2023/12/01 03:15:57;;;;;;;50.35;15.65;;;;;;;-0.37;100.00;100324.69;6246676;23;20326;-89
2023/12/01 03:18:23;;;;;;;51.70;16.33;;;;;;;-0.33;100.00;100325.19;6195966;23;20015;-89
2023/12/01 03:20:48;;;;;;;53.10;16.90;;;;;;;-0.33;100.00;100319.88;6248778;23;20103;-89
2023/12/01 03:23:13;;;;;;;50.80;16.17;;;;;;;-0.32;100.00;100324.22;6220895;23;20012;-89
2023/12/01 03:25:39;;;;;;;55.60;17.90;;;;;;;-0.33;100.00;100327.03;6196121;23;20039;-89
2023/12/01 03:28:04;;;;;;;59.90;16.63;;;;;;;-0.38;100.00;100327.53;6195860;23;20016;-89
2023/12/01 03:30:30;;;;;;;55.50;16.90;;;;;;;-0.37;100.00;100330.03;6195773;23;20016;-89
2023/12/01 03:32:55;;;;;;;53.80;16.80;;;;;;;-0.36;100.00;100330.84;6196438;23;20381;-89
2023/12/01 03:35:24;;;;;;;53.43;16.07;;;;;;;-0.35;100.00;100327.19;6197069;23;20363;-89
2023/12/01 03:37:57;;;;;;;54.58;15.40;;;;;;;-0.32;100.00;100331.41;6248401;23;20014;-88
2023/12/01 03:40:24;;;;;;;59.17;16.90;;;;;;;-0.36;100.00;100325.53;6220312;23;20094;-89
2023/12/01 03:42:51;;;;;;;62.20;16.10;;;;;;;-0.32;100.00;100339.38;6195891;23;20066;-89
2023/12/01 03:45:16;;;;;;;52.30;16.07;;;;;;;-0.32;100.00;100336.72;6220862;23;20040;-90
2023/12/01 03:47:50;;;;;;;51.13;15.93;;;;;;;-0.31;100.00;100333.03;6195936;23;20004;-89
2023/12/01 03:50:18;;;;;;;56.05;16.52;;;;;;;-0.32;100.00;100332.22;6220823;23;20011;-88
2023/12/01 03:52:49;;;;;;;59.50;17.07;;;;;;;-0.32;100.00;100336.72;6221811;23;20082;-88
2023/12/01 03:55:15;;;;;;;58.30;16.52;;;;;;;-0.36;100.00;100337.00;6221357;23;20240;-88
2023/12/01 03:57:44;;;;;;;61.75;17.42;;;;;;;-0.36;100.00;100344.19;6221272;23;20016;-88
2023/12/01 04:00:13;;;;;;;71.45;19.65;;;;;;;-0.38;100.00;100343.50;6221189;23;20007;-89
2023/12/01 04:02:48;;;;;;;58.77;17.67;;;;;;;-0.36;100.00;100346.84;6220664;23;20037;-89
2023/12/01 04:05:18;;;;;;;61.95;18.10;;;;;;;-0.34;100.00;100347.50;6220510;23;20242;-89
2023/12/01 04:07:45;;;;;;;64.78;19.50;;;;;;;-0.32;100.00;100356.22;6196447;23;20435;-88
2023/12/01 04:10:11;;;;;;;67.03;19.25;;;;;;;-0.30;100.00;100348.88;6247104;23;20426;-89
2023/12/01 04:12:49;;;;;;;62.97;19.10;;;;;;;-0.27;100.00;100361.91;6195560;23;20102;-89
2023/12/01 04:15:17;;;;;;;72.18;19.67;;;;;;;-0.22;100.00;100367.59;6221116;23;20008;-89
2023/12/01 04:17:48;;;;;;;71.03;18.45;;;;;;;-0.28;100.00;100367.38;6247623;23;20008;-89
2023/12/01 04:20:21;;;;;;;73.50;19.08;;;;;;;-0.28;100.00;100373.56;6220923;23;20437;-89
2023/12/01 04:23:11;;;;;;;63.20;17.37;;;;;;;-0.27;100.00;100377.88;6247736;23;20422;-89
2023/12/01 04:25:40;;;;;;;63.38;17.35;;;;;;;-0.33;100.00;100369.69;6221626;23;20028;-88
2023/12/01 04:28:07;;;;;;;64.05;16.67;;;;;;;-0.35;100.00;100372.53;6220879;23;20015;-89
2023/12/01 04:30:34;;;;;;;62.90;17.63;;;;;;;-0.39;100.00;100374.66;6221540;23;20043;-88
2023/12/01 04:33:00;;;;;;;60.08;15.88;;;;;;;-0.39;100.00;100379.16;6247651;23;20445;-89
2023/12/01 04:35:29;;;;;;;53.67;14.83;;;;;;;-0.44;100.00;100378.78;6247621;23;19996;-89
2023/12/01 04:37:55;;;;;;;59.25;16.42;;;;;;;-0.51;100.00;100381.22;6196211;23;20016;-89
2023/12/01 04:40:21;;;;;;;56.25;17.23;;;;;;;-0.55;100.00;100383.38;6220446;23;20028;-89
2023/12/01 04:42:51;;;;;;;57.93;15.97;;;;;;;-0.58;100.00;100389.00;6195099;23;20012;-88
2023/12/01 04:45:21;;;;;;;58.83;15.15;;;;;;;-0.58;100.00;100394.31;6220022;23;20015;-88
2023/12/01 04:47:51;;;;;;;69.15;17.20;;;;;;;-0.60;100.00;100383.00;6220759;23;20008;-89
2023/12/01 04:50:25;;;;;;;67.72;16.95;;;;;;;-0.58;100.00;100390.81;6221133;23;20287;-89
2023/12/01 04:53:08;;;;;;;60.57;15.33;;;;;;;-0.52;100.00;100395.53;6220498;23;20004;-89
2023/12/01 04:55:35;;;;;;;63.33;16.73;;;;;;;-0.54;100.00;100400.19;6220878;23;20223;-89
2023/12/01 04:58:00;;;;;;;66.68;18.05;;;;;;;-0.53;100.00;100396.53;6220366;23;20430;-89
2023/12/01 05:00:27;;;;;;;68.47;17.67;;;;;;;-0.54;100.00;100402.84;6247479;23;20004;-89
2023/12/01 05:02:57;;;;;;;68.60;18.83;;;;;;;-0.53;100.00;100404.53;6220265;23;20079;-89
2023/12/01 05:05:30;;;;;;;66.75;19.08;;;;;;;-0.50;100.00;100409.56;6219940;23;20008;-89
2023/12/01 05:07:57;;;;;;;70.55;18.35;;;;;;;-0.54;100.00;100411.69;6220192;23;20035;-89
2023/12/01 05:10:24;;;;;;;70.80;19.70;;;;;;;-0.54;100.00;100405.53;6220014;23;20023;-89
2023/12/01 05:12:51;;;;;;;71.78;19.42;;;;;;;-0.54;100.00;100413.53;6220161;23;20270;-89
2023/12/01 05:15:22;;;;;;;64.18;18.48;;;;;;;-0.50;100.00;100416.69;6219571;23;20008;-89
2023/12/01 05:17:52;;;;;;;68.00;19.02;;;;;;;-0.49;100.00;100421.06;6220053;23;20011;-89
2023/12/01 05:20:19;;;;;;;71.15;18.70;;;;;;;-0.50;100.00;100419.38;6220596;23;20015;-89
2023/12/01 05:22:47;;;;;;;68.10;19.07;;;;;;;-0.51;100.00;100415.88;6220449;23;20008;-89
2023/12/01 05:25:17;;;;;;;66.63;18.70;;;;;;;-0.53;100.00;100420.53;6220043;23;20247;-89
2023/12/01 05:27:51;;;;;;;66.57;18.20;;;;;;;-0.49;100.00;100426.38;6220202;23;20008;-89
2023/12/01 05:30:19;;;;;;;71.10;18.92;;;;;;;-0.48;100.00;100423.56;6219960;23;20058;-90
2023/12/01 05:32:46;;;;;;;68.43;18.27;;;;;;;-0.45;100.00;100436.56;6195295;23;20022;-89
2023/12/01 05:35:12;;;;;;;79.57;21.20;;;;;;;-0.46;100.00;100426.91;6194972;23;20008;-90
2023/12/01 05:37:44;;;;;;;72.47;20.02;;;;;;;-0.43;100.00;100436.41;6219944;23;20240;-89
2023/12/01 05:40:10;;;;;;;75.28;20.52;;;;;;;-0.41;100.00;100439.78;6195642;23;20023;-89
2023/12/01 05:42:36;;;;;;;71.72;18.98;;;;;;;-0.43;100.00;100437.28;6245977;23;20001;-90
2023/12/01 05:45:04;;;;;;;71.67;20.67;;;;;;;-0.49;100.00;100437.88;6246809;23;20102;-90
2023/12/01 05:47:29;;;;;;;66.10;18.73;;;;;;;-0.49;100.00;100443.19;6221228;23;20704;-90
2023/12/01 05:49:55;;;;;;;69.63;20.05;;;;;;;-0.45;100.00;100446.41;6220924;23;20067;-89
2023/12/01 05:52:20;;;;;;;66.78;19.73;;;;;;;-0.42;100.00;100448.75;6195199;23;20331;-89
2023/12/01 05:54:46;;;;;;;70.87;20.20;;;;;;;-0.42;100.00;100446.94;6219868;23;20012;-90
2023/12/01 05:57:12;;;;;;;66.38;18.88;;;;;;;-0.38;100.00;100452.81;6219886;23;20008;-90
2023/12/01 05:59:38;;;;;;;72.03;20.97;;;;;;;-0.40;100.00;100450.31;6194867;23;20008;-89
2023/12/01 06:02:10;;;;;;;71.37;21.03;;;;;;;-0.40;100.00;100458.28;6220386;23;20011;-90
2023/12/01 06:04:37;;;;;;;68.80;20.52;;;;;;;-0.38;100.00;100458.97;6220720;23;20686;-89
2023/12/01 06:07:07;;;;;;;64.18;19.30;;;;;;;-0.39;100.00;100451.94;6246591;23;20008;-90
2023/12/01 06:09:33;;;;;;;61.22;18.48;;;;;;;-0.29;100.00;100456.38;6172494;23;20016;-90
2023/12/01 06:11:59;;;;;;;65.05;20.08;;;;;;;-0.37;100.00;100450.00;6246555;23;20000;-89
2023/12/01 06:14:24;;;;;;;64.67;19.20;;;;;;;-0.41;100.00;100459.28;6219734;23;20011;-89
2023/12/01 06:16:50;;;;;;;55.70;19.47;;;;;;;-0.42;100.00;100459.44;6220097;23;20300;-89
2023/12/01 06:19:15;;;;;;;55.03;18.47;;;;;;;-0.43;100.00;100453.28;6194543;23;20015;-89
2023/12/01 06:21:41;;;;;;;59.40;19.23;;;;;;;-0.44;100.00;100456.91;6220119;23;20011;-89
2023/12/01 06:24:06;;;;;;;52.97;18.95;;;;;;;-0.43;100.00;100455.94;6195009;23;20035;-90
2023/12/01 06:26:31;;;;;;;56.50;18.73;;;;;;;-0.41;100.00;100464.59;6244706;23;20371;-89
2023/12/01 06:28:57;;;;;;;54.67;18.23;;;;;;;-0.43;100.00;100463.94;6219385;23;20012;-89
2023/12/01 06:31:25;;;;;;;55.27;19.20;;;;;;;-0.44;100.00;100464.09;6219795;23;20011;-94
2023/12/01 06:33:50;;;;;;;54.45;18.63;;;;;;;-0.43;100.00;100463.06;6198281;23;20083;-96
2023/12/01 06:36:18;;;;;;;52.17;19.27;;;;;;;-0.44;100.00;100464.09;6222659;23;20094;-96
2023/12/01 06:38:43;;;;;;;52.15;18.27;;;;;;;-0.42;100.00;100464.75;6222890;23;20288;-96
2023/12/01 06:41:09;;;;;;;53.20;18.07;;;;;;;-0.40;100.00;100474.28;6248539;23;20083;-96
2023/12/01 06:43:34;;;;;;;54.03;18.33;;;;;;;-0.40;100.00;100468.09;6221204;23;20239;-96
2023/12/01 06:46:03;;;;;;;47.03;16.93;;;;;;;-0.38;100.00;100474.13;6251071;23;20035;-96
2023/12/01 06:48:31;;;;;;;48.20;17.23;;;;;;;-0.38;100.00;100474.13;6220983;23;20023;-92
2023/12/01 06:50:59;;;;;;;56.42;17.88;;;;;;;-0.38;100.00;100474.13;6194927;23;20020;-93
2023/12/01 06:53:25;;;;;;;52.20;19.00;;;;;;;-0.36;100.00;100478.28;6220602;23;20398;-95
2023/12/01 06:55:50;;;;;;;47.63;16.00;;;;;;;-0.36;100.00;100480.97;6245943;23;20015;-94
2023/12/01 06:58:16;;;;;;;47.20;16.93;;;;;;;-0.38;100.00;100474.13;6223327;23;20330;-95
2023/12/01 07:00:41;;;;;;;49.28;16.23;;;;;;;-0.38;100.00;100484.78;6195133;23;20382;-93
2023/12/01 07:03:09;;;;;;;45.20;14.93;;;;;;;-0.39;100.00;100477.78;6222613;23;20004;-92
2023/12/01 07:05:37;;;;;;;51.13;15.98;;;;;;;-0.35;100.00;100484.50;6220661;23;20005;-91
2023/12/01 07:08:03;;;;;;;49.33;16.83;;;;;;;-0.37;100.00;100492.63;6246824;23;20007;-91
2023/12/01 07:10:29;;;;;;;50.83;16.08;;;;;;;-0.36;100.00;100488.13;6220742;23;20004;-91
2023/12/01 07:12:55;;;;;;;47.58;17.08;;;;;;;-0.34;100.00;100496.81;6194906;23;20030;-91
2023/12/01 07:15:22;;;;;;;50.28;15.57;;;;;;;-0.32;100.00;100508.19;6246869;23;20462;-90
2023/12/01 07:17:52;;;;;;;48.90;16.17;;;;;;;-0.29;100.00;100496.38;6196338;23;20039;-89
2023/12/01 07:20:18;;;;;;;45.33;16.10;;;;;;;-0.27;100.00;100499.72;6248029;23;20043;-88
2023/12/01 07:22:46;;;;;;;48.67;15.60;;;;;;;-0.25;100.00;100509.25;6222107;23;20410;-89
2023/12/01 07:25:21;;;;;;;50.70;16.08;;;;;;;-0.26;100.00;100504.88;6220632;23;20000;-87
2023/12/01 07:28:02;;;;;;;43.13;15.02;;;;;;;-0.23;100.00;100504.59;6221337;23;20405;-87
2023/12/01 07:30:28;;;;;;;48.43;15.23;;;;;;;-0.20;100.00;100498.94;6247647;23;20402;-88
2023/12/01 07:32:55;;;;;;;42.67;14.73;;;;;;;-0.23;100.00;100496.59;6220543;23;20015;-88
2023/12/01 07:38:42;;;;;;;40.10;15.30;;;;;;;-0.19;100.00;100505.13;6247406;23;20054;-90
2023/12/01 07:45:17;;;;;;;41.40;14.70;;;;;;;-0.14;100.00;100510.81;6247359;22;20488;-90
2023/12/01 07:47:55;;;;;;;44.47;14.82;;;;;;;-0.11;100.00;100505.19;6215015;23;20490;-90
2023/12/01 07:50:21;;;;;;;47.83;15.23;;;;;;;-0.10;100.00;100503.38;6194450;23;20015;-90
2023/12/01 07:52:48;;;;;;;46.13;16.25;;;;;;;-0.07;100.00;100505.72;6220750;23;20061;-90
2023/12/01 07:55:16;;;;;;;43.30;15.10;;;;;;;-0.03;100.00;100507.06;6248745;23;20007;-89
2023/12/01 07:57:42;;;;;;;48.20;15.90;;;;;;;-0.01;100.00;100507.78;6196292;23;20009;-90
2023/12/01 08:00:14;;;;;;;48.87;16.97;;;;;;;-0.01;100.00;100505.94;6247955;23;20012;-89
2023/12/01 08:02:43;;;;;;;51.08;18.52;;;;;;;0.02;100.00;100503.97;6196741;23;20247;-89
2023/12/01 08:05:14;;;;;;;47.50;15.98;;;;;;;0.02;100.00;100496.78;6247753;23;20011;-89
2023/12/01 08:07:51;;;;;;;49.67;16.95;;;;;;;0.07;100.00;100499.81;6196718;23;20016;-89
2023/12/01 08:10:20;;;;;;;48.80;16.80;;;;;;;0.09;100.00;100503.19;6220631;23;20088;-89
2023/12/01 08:12:47;;;;;;;42.67;15.30;;;;;;;0.09;100.00;100505.84;6196369;23;20008;-89
2023/12/01 08:15:16;;;;;;;46.50;15.35;;;;;;;0.13;100.00;100509.03;6247397;23;20239;-89
2023/12/01 08:17:46;;;;;;;44.00;15.25;;;;;;;0.11;100.00;100500.34;6247427;23;20012;-90
2023/12/01 08:20:12;;;;;;;44.88;15.57;;;;;;;0.16;100.00;100512.25;6220509;23;20090;-90
2023/12/01 08:22:37;;;;;;;47.60;16.27;;;;;;;0.18;100.00;100514.75;6220445;23;20413;-89
2023/12/01 08:25:04;;;;;;;47.47;15.75;;;;;;;0.20;100.00;100515.41;6221165;23;20314;-90
2023/12/01 08:27:29;;;;;;;47.67;16.33;;;;;;;0.24;100.00;100522.13;6220301;23;20096;-89
2023/12/01 08:29:55;;;;;;;47.70;16.03;;;;;;;0.31;100.00;100517.00;6220628;23;20039;-89
2023/12/01 08:32:23;;;;;;;42.28;15.07;;;;;;;0.32;100.00;100524.00;6221416;23;20382;-89
2023/12/01 08:34:50;;;;;;;43.23;14.70;;;;;;;0.34;100.00;100530.03;6220365;23;20070;-89
2023/12/01 08:37:16;;;;;;;41.13;14.45;;;;;;;0.34;100.00;100524.72;6195780;23;20254;-89
2023/12/01 08:39:43;;;;;;;40.65;14.02;;;;;;;0.39;100.00;100530.41;6247038;23;20004;-89
2023/12/01 08:42:09;;;;;;;44.92;14.55;;;;;;;0.40;100.00;100536.56;6195530;23;20027;-89
2023/12/01 08:44:34;;;;;;;45.53;14.47;;;;;;;0.44;100.00;100540.59;6219918;23;20016;-89
2023/12/01 08:47:00;;;;;;;41.87;14.70;;;;;;;0.48;100.00;100536.63;6247876;23;20054;-89
2023/12/01 08:49:25;;;;;;;43.60;15.30;;;;;;;0.50;100.00;100540.81;6219776;23;20008;-90
2023/12/01 08:51:55;;;;;;;43.90;16.03;;;;;;;0.54;100.00;100541.34;6244912;23;20004;-90
2023/12/01 08:54:22;;;;;;;40.20;15.10;;;;;;;0.57;100.00;100541.03;6221421;23;20032;-89
2023/12/01 08:56:49;;;;;;;41.23;15.83;;;;;;;0.59;100.00;100532.84;6246737;23;20007;-89
2023/12/01 08:59:19;;;;;;;36.65;13.63;;;;;;;0.62;100.00;100537.88;6246808;23;20423;-88
2023/12/01 09:01:45;;;;;;;43.85;14.57;;;;;;;0.65;100.00;100540.22;6246798;23;20334;-89
2023/12/01 09:04:10;;;;;;;44.42;14.63;;;;;;;0.67;100.00;100538.25;6220662;23;20441;-89
2023/12/01 09:06:38;;;;;;;42.63;16.30;;;;;;;0.67;100.00;100546.25;6220429;23;20335;-90
2023/12/01 09:09:07;;;;;;;44.67;15.30;;;;;;;0.70;100.00;100544.09;6220464;23;20012;-90
2023/12/01 09:11:40;;;;;;;38.13;13.63;;;;;;;0.73;100.00;100544.78;6220400;23;20000;-90
2023/12/01 09:14:05;;;;;;;38.83;13.52;;;;;;;0.72;100.00;100546.59;6196719;23;20058;-89
2023/12/01 09:16:33;;;;;;;36.25;12.82;;;;;;;0.74;100.00;100546.44;6219812;23;20419;-90
2023/12/01 09:19:01;;;;;;;39.70;12.70;;;;;;;0.76;100.00;100547.97;6219980;23;20004;-89
2023/12/01 09:21:26;;;;;;;40.78;12.93;;;;;;;0.82;100.00;100549.19;6219548;23;20012;-94
2023/12/01 09:23:52;;;;;;;36.08;12.25;;;;;;;0.85;100.00;100554.19;6220097;23;20015;-89
2023/12/01 09:26:18;;;;;;;33.67;12.30;;;;;;;0.86;100.00;100553.22;6194824;23;20019;-90
2023/12/01 09:28:53;;;;;;;30.00;12.13;;;;;;;0.90;100.00;100561.72;6247030;23;20410;-90
2023/12/01 09:31:19;;;;;;;30.50;11.90;;;;;;;0.91;100.00;100566.91;6220184;23;20008;-90
2023/12/01 09:33:44;;;;;;;27.63;10.95;;;;;;;0.93;100.00;100567.59;6195753;23;20035;-90
2023/12/01 09:36:10;;;;;;;26.17;10.10;;;;;;;0.93;100.00;100564.94;6219967;23;20427;-90
2023/12/01 09:38:36;;;;;;;26.42;10.23;;;;;;;0.93;100.00;100569.41;6220319;23;20004;-90
2023/12/01 09:41:02;;;;;;;26.17;9.37;;;;;;;0.91;100.00;100571.44;6220071;23;20008;-90
2023/12/01 09:43:30;;;;;;;27.48;9.90;;;;;;;0.93;100.00;100570.28;6219539;23;20004;-91
2023/12/01 09:45:56;;;;;;;27.35;10.27;;;;;;;0.96;100.00;100575.31;6220944;23;20407;-90
2023/12/01 09:48:21;;;;;;;24.13;9.43;;;;;;;0.98;100.00;100580.47;6244778;23;20019;-90
2023/12/01 09:50:54;;;;;;;25.63;10.27;;;;;;;0.99;100.00;100584.81;6219403;23;20081;-90
2023/12/01 09:53:20;;;;;;;26.85;10.48;;;;;;;1.01;100.00;100593.53;6221054;23;20242;-88
2023/12/01 09:55:45;;;;;;;28.48;9.77;;;;;;;1.09;100.00;100584.69;6220396;23;20008;-89
2023/12/01 09:58:12;;;;;;;26.30;9.67;;;;;;;1.15;100.00;100586.72;6169573;23;20016;-89
2023/12/01 10:00:38;;;;;;;25.90;9.80;;;;;;;1.19;100.00;100586.25;6224208;23;20313;-90
2023/12/01 10:03:03;;;;;;;22.17;9.00;;;;;;;1.27;100.00;100581.94;6219408;23;20062;-89
2023/12/01 10:05:34;;;;;;;26.87;9.10;;;;;;;1.30;100.00;100577.13;6246733;23;20047;-90
2023/12/01 10:08:00;;;;;;;21.77;9.57;;;;;;;1.33;100.00;100576.78;6219380;23;20066;-90
2023/12/01 10:10:26;;;;;;;22.95;9.40;;;;;;;1.30;100.00;100577.13;6195217;23;20016;-90
2023/12/01 10:13:12;;;;;;;24.10;9.43;;;;;;;1.36;100.00;100584.50;6221365;23;20008;-89
2023/12/01 10:15:38;;;;;;;23.65;9.60;;;;;;;1.37;100.00;100583.50;6219955;23;20004;-90
2023/12/01 10:18:16;;;;;;;23.55;9.10;;;;;;;1.39;100.00;100586.00;6247528;23;20010;-89
2023/12/01 10:20:58;;;;;;;24.87;9.83;;;;;;;1.42;100.00;100583.00;6220014;23;20011;-89
2023/12/01 10:23:24;;;;;;;24.13;9.27;;;;;;;1.45;100.00;100581.81;6220299;23;20285;-91
2023/12/01 10:25:51;;;;;;;22.40;9.50;;;;;;;1.52;100.00;100589.06;6219744;23;20389;-90
2023/12/01 10:28:18;;;;;;;24.05;9.75;;;;;;;1.54;100.00;100581.69;6220027;23;20022;-90
2023/12/01 10:30:58;;;;;;;24.77;9.93;;;;;;;1.56;100.00;100578.84;6220175;23;20008;-91
2023/12/01 10:33:25;;;;;;;23.90;9.67;;;;;;;1.54;100.00;100583.56;6246805;23;20031;-91
2023/12/01 10:36:02;;;;;;;24.98;9.45;;;;;;;1.59;100.00;100591.91;6246116;23;20230;-91
2023/12/01 10:38:30;;;;;;;25.63;10.07;;;;;;;1.68;100.00;100582.94;6247215;23;20054;-91
2023/12/01 10:40:59;;;;;;;23.63;10.02;;;;;;;1.73;100.00;100579.75;6220216;23;20004;-91
2023/12/01 10:43:27;;;;;;;24.02;9.73;;;;;;;1.78;100.00;100577.41;6219873;23;20074;-91
2023/12/01 10:45:53;;;;;;;20.93;9.03;;;;;;;1.88;100.00;100574.59;6220440;23;20038;-90
2023/12/01 10:48:20;;;;;;;21.92;9.63;;;;;;;1.95;100.00;100583.63;6219710;23;20263;-91
2023/12/01 10:50:49;;;;;;;23.13;9.50;;;;;;;2.00;100.00;100581.28;6221465;23;20007;-91
2023/12/01 10:53:19;;;;;;;22.33;9.65;;;;;;;1.99;100.00;100579.59;6221977;23;20308;-91
2023/12/01 10:55:47;;;;;;;24.35;9.70;;;;;;;2.01;100.00;100582.97;6221240;23;20499;-90
2023/12/01 10:58:20;;;;;;;21.97;8.93;;;;;;;2.04;100.00;100576.44;6221736;23;20091;-90
2023/12/01 11:00:49;;;;;;;23.92;9.25;;;;;;;2.03;100.00;100575.59;6222154;23;20325;-90
2023/12/01 11:03:18;;;;;;;20.02;9.13;;;;;;;2.04;100.00;100571.94;6221916;23;20016;-90
2023/12/01 11:05:47;;;;;;;21.70;8.93;;;;;;;2.10;100.00;100568.59;6221664;23;20386;-90
2023/12/01 11:08:41;;;;;;;24.27;8.85;;;;;;;2.15;100.00;100570.75;6221867;23;20036;-90
2023/12/01 11:11:32;;;;;;;23.13;9.03;;;;;;;2.17;100.00;100576.78;6222040;23;20343;-91
2023/12/01 11:14:07;;;;;;;24.52;9.35;;;;;;;2.14;100.00;100577.13;6222883;23;20243;-91